sensor_id;sensor_type;location;lat;lon;timestamp;temperature;humidity
39347;DHT22;26262;49.836;6.632;2023-06-22T00:01:52;19.80;99.90
39347;DHT22;26262;49.836;6.632;2023-06-22T00:04:18;19.90;99.90
39347;DHT22;26262;49.836;6.632;2023-06-22T00:06:43;19.90;99.90
39347;DHT22;26262;49.836;6.632;2023-06-22T00:09:09;19.80;99.90
39347;DHT22;26262;49.836;6.632;2023-06-22T00:11:36;19.50;99.90
39347;DHT22;26262;49.836;6.632;2023-06-22T00:14:02;19.60;99.90
39347;DHT22;26262;49.836;6.632;2023-06-22T00:16:28;19.80;99.90
39347;DHT22;26262;49.836;6.632;2023-06-22T00:18:53;19.90;99.90
39347;DHT22;26262;49.836;6.632;2023-06-22T00:21:19;20.00;99.90
39347;DHT22;26262;49.836;6.632;2023-06-22T00:23:46;19.80;99.90
39347;DHT22;26262;49.836;6.632;2023-06-22T00:26:12;19.80;99.90
39347;DHT22;26262;49.836;6.632;2023-06-22T00:28:37;19.80;99.90
39347;DHT22;26262;49.836;6.632;2023-06-22T00:31:03;19.90;99.90
39347;DHT22;26262;49.836;6.632;2023-06-22T00:33:28;20.00;99.90
39347;DHT22;26262;49.836;6.632;2023-06-22T00:35:54;20.10;99.90
39347;DHT22;26262;49.836;6.632;2023-06-22T00:38:20;20.20;99.90
39347;DHT22;26262;49.836;6.632;2023-06-22T00:40:46;20.20;99.90
39347;DHT22;26262;49.836;6.632;2023-06-22T00:43:11;20.30;99.90
39347;DHT22;26262;49.836;6.632;2023-06-22T00:45:38;20.20;99.90
39347;DHT22;26262;49.836;6.632;2023-06-22T00:48:03;20.00;99.90
39347;DHT22;26262;49.836;6.632;2023-06-22T00:50:31;20.10;99.90
39347;DHT22;26262;49.836;6.632;2023-06-22T00:53:09;20.10;99.90
39347;DHT22;26262;49.836;6.632;2023-06-22T00:55:41;19.90;99.90
39347;DHT22;26262;49.836;6.632;2023-06-22T00:58:09;19.80;99.90
39347;DHT22;26262;49.836;6.632;2023-06-22T01:00:36;19.70;99.90
39347;DHT22;26262;49.836;6.632;2023-06-22T01:03:02;19.70;99.90
39347;DHT22;26262;49.836;6.632;2023-06-22T01:05:28;19.60;99.90
39347;DHT22;26262;49.836;6.632;2023-06-22T01:16:40;19.40;99.90
39347;DHT22;26262;49.836;6.632;2023-06-22T01:19:20;19.40;99.90
39347;DHT22;26262;49.836;6.632;2023-06-22T01:21:50;19.50;99.90
39347;DHT22;26262;49.836;6.632;2023-06-22T01:24:41;19.60;99.90
39347;DHT22;26262;49.836;6.632;2023-06-22T01:27:24;19.70;99.90
39347;DHT22;26262;49.836;6.632;2023-06-22T01:29:55;19.80;99.90
39347;DHT22;26262;49.836;6.632;2023-06-22T01:32:31;19.90;99.90
39347;DHT22;26262;49.836;6.632;2023-06-22T01:35:00;19.90;99.90
39347;DHT22;26262;49.836;6.632;2023-06-22T01:37:30;19.70;99.90
39347;DHT22;26262;49.836;6.632;2023-06-22T01:39:58;19.50;99.90
39347;DHT22;26262;49.836;6.632;2023-06-22T01:42:24;19.40;99.90
39347;DHT22;26262;49.836;6.632;2023-06-22T01:44:54;19.30;99.90
39347;DHT22;26262;49.836;6.632;2023-06-22T01:47:22;19.20;99.90
39347;DHT22;26262;49.836;6.632;2023-06-22T01:49:48;19.10;99.90
39347;DHT22;26262;49.836;6.632;2023-06-22T01:52:14;19.10;99.90
39347;DHT22;26262;49.836;6.632;2023-06-22T01:54:39;19.10;99.90
39347;DHT22;26262;49.836;6.632;2023-06-22T01:57:06;19.20;99.90
39347;DHT22;26262;49.836;6.632;2023-06-22T01:59:46;19.10;99.90
39347;DHT22;26262;49.836;6.632;2023-06-22T02:02:16;19.20;99.90
39347;DHT22;26262;49.836;6.632;2023-06-22T02:07:19;19.40;99.90
39347;DHT22;26262;49.836;6.632;2023-06-22T02:09:47;19.40;99.90
39347;DHT22;26262;49.836;6.632;2023-06-22T02:12:17;19.30;99.90
39347;DHT22;26262;49.836;6.632;2023-06-22T02:14:44;19.30;99.90
39347;DHT22;26262;49.836;6.632;2023-06-22T02:17:12;19.10;99.90
39347;DHT22;26262;49.836;6.632;2023-06-22T02:19:39;19.10;99.90
39347;DHT22;26262;49.836;6.632;2023-06-22T02:22:06;19.20;99.90
39347;DHT22;26262;49.836;6.632;2023-06-22T02:24:31;19.30;99.90
39347;DHT22;26262;49.836;6.632;2023-06-22T02:26:59;19.40;99.90
39347;DHT22;26262;49.836;6.632;2023-06-22T02:29:25;19.30;99.90
39347;DHT22;26262;49.836;6.632;2023-06-22T02:31:52;19.20;99.90
39347;DHT22;26262;49.836;6.632;2023-06-22T02:34:18;19.20;99.90
39347;DHT22;26262;49.836;6.632;2023-06-22T02:36:50;19.10;99.90
39347;DHT22;26262;49.836;6.632;2023-06-22T02:39:22;19.30;99.90
39347;DHT22;26262;49.836;6.632;2023-06-22T02:41:49;19.30;99.90
39347;DHT22;26262;49.836;6.632;2023-06-22T02:44:15;19.40;99.90
39347;DHT22;26262;49.836;6.632;2023-06-22T02:46:41;19.20;99.90
39347;DHT22;26262;49.836;6.632;2023-06-22T02:49:06;18.90;99.90
39347;DHT22;26262;49.836;6.632;2023-06-22T02:51:37;19.00;99.90
39347;DHT22;26262;49.836;6.632;2023-06-22T02:54:05;19.00;99.90
39347;DHT22;26262;49.836;6.632;2023-06-22T02:56:30;18.90;99.90
39347;DHT22;26262;49.836;6.632;2023-06-22T02:58:56;18.90;99.90
39347;DHT22;26262;49.836;6.632;2023-06-22T03:01:26;19.00;99.90
39347;DHT22;26262;49.836;6.632;2023-06-22T03:04:02;19.10;99.90
39347;DHT22;26262;49.836;6.632;2023-06-22T03:06:27;18.90;99.90
39347;DHT22;26262;49.836;6.632;2023-06-22T03:08:59;18.90;99.90
39347;DHT22;26262;49.836;6.632;2023-06-22T03:11:26;18.80;99.90
39347;DHT22;26262;49.836;6.632;2023-06-22T03:13:51;18.80;99.90
39347;DHT22;26262;49.836;6.632;2023-06-22T03:16:18;18.60;99.90
39347;DHT22;26262;49.836;6.632;2023-06-22T03:18:44;18.80;99.90
39347;DHT22;26262;49.836;6.632;2023-06-22T03:21:10;18.70;99.90
39347;DHT22;26262;49.836;6.632;2023-06-22T03:23:35;18.70;99.90
39347;DHT22;26262;49.836;6.632;2023-06-22T03:26:01;18.60;99.90
39347;DHT22;26262;49.836;6.632;2023-06-22T03:28:27;18.60;99.90
39347;DHT22;26262;49.836;6.632;2023-06-22T03:30:53;18.70;99.90
39347;DHT22;26262;49.836;6.632;2023-06-22T03:33:18;18.60;99.90
39347;DHT22;26262;49.836;6.632;2023-06-22T03:35:44;18.60;99.90
39347;DHT22;26262;49.836;6.632;2023-06-22T03:38:09;18.80;99.90
39347;DHT22;26262;49.836;6.632;2023-06-22T03:40:35;18.70;99.90
39347;DHT22;26262;49.836;6.632;2023-06-22T03:43:00;18.80;99.90
39347;DHT22;26262;49.836;6.632;2023-06-22T03:45:26;18.80;99.90
39347;DHT22;26262;49.836;6.632;2023-06-22T03:47:51;19.00;99.90
39347;DHT22;26262;49.836;6.632;2023-06-22T03:50:17;18.80;99.90
39347;DHT22;26262;49.836;6.632;2023-06-22T03:52:45;18.70;99.90
39347;DHT22;26262;49.836;6.632;2023-06-22T03:55:11;18.70;99.90
39347;DHT22;26262;49.836;6.632;2023-06-22T03:57:36;18.70;99.90
39347;DHT22;26262;49.836;6.632;2023-06-22T04:00:02;18.70;99.90
39347;DHT22;26262;49.836;6.632;2023-06-22T04:02:31;18.80;99.90
39347;DHT22;26262;49.836;6.632;2023-06-22T04:04:56;19.00;99.90
39347;DHT22;26262;49.836;6.632;2023-06-22T04:07:22;19.10;99.90
39347;DHT22;26262;49.836;6.632;2023-06-22T04:09:47;19.20;99.90
39347;DHT22;26262;49.836;6.632;2023-06-22T04:12:13;19.10;99.90
39347;DHT22;26262;49.836;6.632;2023-06-22T04:14:38;19.20;99.90
39347;DHT22;26262;49.836;6.632;2023-06-22T04:17:04;19.10;99.90
39347;DHT22;26262;49.836;6.632;2023-06-22T04:19:30;18.90;99.90
39347;DHT22;26262;49.836;6.632;2023-06-22T04:21:56;18.90;99.90
39347;DHT22;26262;49.836;6.632;2023-06-22T04:24:21;18.90;99.90
39347;DHT22;26262;49.836;6.632;2023-06-22T04:26:47;18.90;99.90
39347;DHT22;26262;49.836;6.632;2023-06-22T04:29:13;18.90;99.90
39347;DHT22;26262;49.836;6.632;2023-06-22T04:31:38;18.80;99.90
39347;DHT22;26262;49.836;6.632;2023-06-22T04:34:05;19.00;99.90
39347;DHT22;26262;49.836;6.632;2023-06-22T04:36:38;18.80;99.90
39347;DHT22;26262;49.836;6.632;2023-06-22T04:39:08;18.80;99.90
39347;DHT22;26262;49.836;6.632;2023-06-22T04:41:39;18.80;99.90
39347;DHT22;26262;49.836;6.632;2023-06-22T04:44:18;18.80;99.90
39347;DHT22;26262;49.836;6.632;2023-06-22T04:46:53;18.80;99.90
39347;DHT22;26262;49.836;6.632;2023-06-22T04:49:34;18.90;99.90
39347;DHT22;26262;49.836;6.632;2023-06-22T04:52:04;19.00;99.90
